Time;durP1;ratioP1;P1;durP2;ratioP2;P2;SDS_P1;SDS_P2;PMS_P1;PMS_P2;Temp;Humidity;BMP_temperature;BMP_pressure;BME280_temperature;BME280_humidity;BME280_pressure;Samples;Min_cycle;Max_cycle;Signal;HPM_P1;HPM_P2
2024/04/02 00:01:10;;;;;;;6.83;1.70;;;;;;;;;;5132724;28;20024;-55
2024/04/02 00:03:36;;;;;;;7.87;1.90;;;;;;;;;;5132506;28;20290;-56
2024/04/02 00:06:02;;;;;;;3.83;1.73;;;;;;;;;;5133898;28;20268;-57
2024/04/02 00:08:31;;;;;;;4.90;2.10;;;;;;;;;;5129112;28;20084;-58
2024/04/02 00:11:06;;;;;;;6.60;1.90;;;;;;;;;;5123876;28;20336;-58
2024/04/02 00:13:31;;;;;;;2.67;1.23;;;;;;;;;;5127041;28;20264;-55
2024/04/02 00:15:58;;;;;;;3.10;1.33;;;;;;;;;;5137971;28;20263;-58
2024/04/02 00:18:24;;;;;;;3.78;1.30;;;;;;;;;;5137823;28;20031;-58
2024/04/02 00:20:50;;;;;;;5.97;1.73;;;;;;;;;;5137437;28;20034;-56
2024/04/02 00:23:16;;;;;;;;;;;;;;;;;;5138541;28;20251;-57
2024/04/02 00:25:43;;;;;;;2.00;1.27;;;;;;;;;;5131998;28;19926;-58
2024/04/02 00:28:11;;;;;;;4.73;1.30;;;;;;;;;;5131439;28;20020;-56
2024/04/02 00:30:38;;;;;;;2.77;1.33;;;;;;;;;;5128843;28;20282;-57
2024/04/02 00:33:03;;;;;;;3.53;1.17;;;;;;;;;;5121573;28;20274;-58
2024/04/02 00:35:28;;;;;;;7.17;1.27;;;;;;;;;;5124897;28;20031;-57
2024/04/02 00:37:54;;;;;;;4.53;1.47;;;;;;;;;;5138001;28;20028;-58
2024/04/02 00:40:20;;;;;;;3.72;1.55;;;;;;;;;;5128921;28;20034;-58
2024/04/02 00:42:46;;;;;;;6.77;1.60;;;;;;;;;;5136891;28;20036;-58
2024/04/02 00:45:12;;;;;;;5.30;2.08;;;;;;;;;;5124660;28;20341;-59
2024/04/02 00:47:39;;;;;;;2.15;1.38;;;;;;;;;;5137667;28;20024;-57
2024/04/02 00:50:05;;;;;;;4.43;1.50;;;;;;;;;;5126215;28;20087;-58
2024/04/02 00:52:31;;;;;;;9.77;1.77;;;;;;;;;;5131726;28;20778;-59
2024/04/02 00:54:57;;;;;;;2.85;1.38;;;;;;;;;;5137678;28;20058;-55
2024/04/02 00:57:22;;;;;;;;;;;;;;;;;;5124480;28;20044;-55
2024/04/02 00:59:48;;;;;;;2.67;1.20;;;;;;;;;;5137283;28;19946;-56
2024/04/02 01:02:14;;;;;;;2.85;1.20;;;;;;;;;;5137226;28;20058;-59
2024/04/02 01:04:40;;;;;;;;;;;;;;;;;;5122448;28;20040;-57
2024/04/02 01:07:06;;;;;;;2.53;1.50;;;;;;;;;;5131335;28;19914;-58
2024/04/02 01:09:32;;;;;;;2.03;1.10;;;;;;;;;;5137191;28;20110;-58
2024/04/02 01:11:57;;;;;;;3.50;1.30;;;;;;;;;;5131200;28;20028;-58
2024/04/02 01:14:22;;;;;;;5.77;1.73;;;;;;;;;;5132741;28;20271;-58
2024/04/02 01:16:48;;;;;;;8.47;2.37;;;;;;;;;;5136990;28;20416;-56
2024/04/02 01:19:14;;;;;;;2.97;1.48;;;;;;;;;;5137235;28;20079;-56
2024/04/02 01:21:39;;;;;;;3.38;1.30;;;;;;;;;;5136635;28;20036;-57
2024/04/02 01:24:05;;;;;;;2.80;1.60;;;;;;;;;;5136171;28;20032;-56
2024/04/02 01:26:30;;;;;;;4.03;1.38;;;;;;;;;;5132806;28;20031;-57
2024/04/02 01:29:02;;;;;;;5.18;1.55;;;;;;;;;;5136718;28;20023;-57
2024/04/02 01:31:27;;;;;;;2.78;1.65;;;;;;;;;;5131494;28;20061;-56
2024/04/02 01:33:53;;;;;;;3.13;1.57;;;;;;;;;;5136975;28;20051;-57
2024/04/02 01:36:19;;;;;;;2.78;1.40;;;;;;;;;;5136732;28;20035;-57
2024/04/02 01:38:44;;;;;;;4.63;1.63;;;;;;;;;;5136463;28;20050;-59
2024/04/02 01:41:09;;;;;;;6.43;1.57;;;;;;;;;;5135944;28;20087;-58
2024/04/02 01:43:35;;;;;;;3.80;1.60;;;;;;;;;;5116057;28;20031;-57
2024/04/02 01:46:00;;;;;;;5.00;1.25;;;;;;;;;;5135095;28;20032;-58
2024/04/02 01:48:25;;;;;;;6.60;1.80;;;;;;;;;;5136157;28;20027;-57
2024/04/02 01:50:51;;;;;;;6.32;1.67;;;;;;;;;;5127992;28;20087;-56
2024/04/02 01:53:16;;;;;;;13.93;2.05;;;;;;;;;;5136465;28;20043;-58
2024/04/02 01:55:43;;;;;;;5.00;2.00;;;;;;;;;;5135853;28;20103;-56
2024/04/02 01:58:09;;;;;;;4.15;1.70;;;;;;;;;;5136099;28;20032;-57
2024/04/02 02:00:34;;;;;;;7.47;1.80;;;;;;;;;;5135394;28;20061;-55
2024/04/02 02:03:00;;;;;;;5.30;1.90;;;;;;;;;;5136208;28;20256;-58
2024/04/02 02:05:25;;;;;;;4.60;1.90;;;;;;;;;;5132247;28;20299;-58
2024/04/02 02:07:51;;;;;;;5.97;1.88;;;;;;;;;;5123107;28;20023;-56
2024/04/02 02:10:16;;;;;;;3.43;1.70;;;;;;;;;;5134525;28;20041;-58
2024/04/02 02:12:42;;;;;;;5.07;1.93;;;;;;;;;;5136026;28;20024;-57
2024/04/02 02:15:07;;;;;;;6.17;1.90;;;;;;;;;;5122616;28;20032;-58
2024/04/02 02:17:32;;;;;;;6.40;1.57;;;;;;;;;;5135172;28;20042;-57
2024/04/02 02:19:58;;;;;;;4.13;1.73;;;;;;;;;;5132976;28;20057;-58
2024/04/02 02:22:23;;;;;;;3.27;1.50;;;;;;;;;;5135573;28;20039;-60
2024/04/02 02:24:49;;;;;;;4.28;2.55;;;;;;;;;;5125954;28;20066;-58
2024/04/02 02:27:14;;;;;;;4.13;1.57;;;;;;;;;;5136009;28;20036;-57
2024/04/02 02:29:40;;;;;;;4.28;2.33;;;;;;;;;;5135457;28;20061;-58
2024/04/02 02:32:05;;;;;;;2.53;1.77;;;;;;;;;;5117375;28;20027;-55
2024/04/02 02:34:31;;;;;;;10.73;2.20;;;;;;;;;;5135436;28;20267;-56
2024/04/02 02:36:56;;;;;;;7.53;1.95;;;;;;;;;;5135719;28;20024;-57
2024/04/02 02:39:22;;;;;;;6.00;2.27;;;;;;;;;;5135709;28;20039;-54
2024/04/02 02:41:47;;;;;;;7.00;2.23;;;;;;;;;;5129664;28;20031;-56
2024/04/02 02:44:12;;;;;;;6.43;2.13;;;;;;;;;;5134977;28;20024;-54
2024/04/02 02:46:38;;;;;;;6.37;2.90;;;;;;;;;;5135355;28;20066;-56
2024/04/02 02:49:03;;;;;;;5.22;2.30;;;;;;;;;;5135307;28;20091;-56
2024/04/02 02:51:29;;;;;;;9.63;2.33;;;;;;;;;;5108648;28;20051;-57
2024/04/02 02:53:54;;;;;;;9.37;3.23;;;;;;;;;;5135138;28;20087;-58
2024/04/02 02:56:22;;;;;;;8.20;2.60;;;;;;;;;;5135268;28;20106;-56
2024/04/02 02:58:49;;;;;;;5.82;2.55;;;;;;;;;;5135127;28;20036;-57
2024/04/02 03:01:15;;;;;;;5.33;2.27;;;;;;;;;;5130931;28;20031;-59
2024/04/02 03:03:41;;;;;;;6.33;2.53;;;;;;;;;;5135306;28;20255;-57
2024/04/02 03:06:06;;;;;;;5.33;2.13;;;;;;;;;;5135173;28;20256;-53
2024/04/02 03:08:32;;;;;;;4.25;2.80;;;;;;;;;;5135249;28;20286;-57
2024/04/02 03:11:01;;;;;;;11.80;2.70;;;;;;;;;;5130146;28;20032;-58
2024/04/02 03:13:27;;;;;;;7.43;2.17;;;;;;;;;;5127317;28;20247;-57
2024/04/02 03:15:52;;;;;;;7.35;2.47;;;;;;;;;;5125328;28;20272;-57
2024/04/02 03:18:17;;;;;;;4.17;1.80;;;;;;;;;;5122470;28;20039;-55
2024/04/02 03:20:42;;;;;;;7.80;2.50;;;;;;;;;;5134157;28;20036;-58
2024/04/02 03:23:10;;;;;;;5.47;2.10;;;;;;;;;;5135206;28;20411;-56
2024/04/02 03:25:39;;;;;;;5.53;2.20;;;;;;;;;;5127474;28;20091;-56
2024/04/02 03:28:04;;;;;;;10.83;2.10;;;;;;;;;;5135086;28;20355;-54
2024/04/02 03:30:30;;;;;;;7.70;2.17;;;;;;;;;;5132707;28;20263;-57
2024/04/02 03:32:55;;;;;;;6.13;2.00;;;;;;;;;;5116368;28;20036;-57
2024/04/02 03:35:21;;;;;;;4.43;2.53;;;;;;;;;;5128716;28;20315;-57
2024/04/02 03:37:46;;;;;;;2.80;1.53;;;;;;;;;;5128280;28;20248;-57
2024/04/02 03:40:13;;;;;;;6.75;1.70;;;;;;;;;;5134853;28;20251;-56
2024/04/02 03:42:38;;;;;;;7.20;1.90;;;;;;;;;;5134326;28;20062;-58
2024/04/02 03:45:05;;;;;;;7.37;2.60;;;;;;;;;;5134553;28;20299;-58
2024/04/02 03:47:30;;;;;;;4.82;2.00;;;;;;;;;;5134733;28;20272;-57
2024/04/02 03:49:55;;;;;;;6.03;1.88;;;;;;;;;;5134510;28;20026;-58
2024/04/02 03:52:22;;;;;;;5.00;1.83;;;;;;;;;;5134313;28;20193;-58
2024/04/02 03:54:47;;;;;;;7.57;2.13;;;;;;;;;;5130470;28;20039;-57
2024/04/02 03:57:13;;;;;;;8.27;2.20;;;;;;;;;;5114678;28;20032;-52
2024/04/02 03:59:38;;;;;;;5.72;2.13;;;;;;;;;;5120644;28;20032;-52
2024/04/02 04:02:04;;;;;;;6.38;2.30;;;;;;;;;;5121324;28;20070;-58
2024/04/02 04:04:29;;;;;;;6.23;2.90;;;;;;;;;;5133939;28;20057;-57
2024/04/02 04:06:55;;;;;;;4.40;2.17;;;;;;;;;;5134655;28;20275;-56
2024/04/02 04:09:21;;;;;;;;;;;;;;;;;;5134998;28;20032;-57
2024/04/02 04:11:47;;;;;;;5.03;2.53;;;;;;;;;;5130511;28;19967;-56
2024/04/02 04:14:13;;;;;;;8.82;2.20;;;;;;;;;;5129651;28;20034;-57
2024/04/02 04:16:38;;;;;;;7.68;2.38;;;;;;;;;;5134190;28;20083;-57
2024/04/02 04:19:04;;;;;;;6.17;1.70;;;;;;;;;;5134437;28;20038;-59
2024/04/02 04:21:30;;;;;;;5.90;2.03;;;;;;;;;;5126105;28;20253;-55
2024/04/02 04:23:55;;;;;;;9.35;2.03;;;;;;;;;;5133776;28;20019;-58
2024/04/02 04:26:21;;;;;;;11.87;2.50;;;;;;;;;;5118493;28;20031;-59
2024/04/02 04:28:46;;;;;;;4.80;2.17;;;;;;;;;;5124855;28;20267;-58
2024/04/02 04:31:12;;;;;;;7.45;2.38;;;;;;;;;;5133219;28;20036;-55
2024/04/02 04:33:37;;;;;;;4.93;2.20;;;;;;;;;;5137865;28;20077;-57
2024/04/02 04:36:03;;;;;;;5.60;2.30;;;;;;;;;;5125780;28;20054;-58
2024/04/02 04:38:29;;;;;;;6.35;1.70;;;;;;;;;;5123712;28;20114;-56
2024/04/02 04:40:54;;;;;;;6.83;2.37;;;;;;;;;;5137548;28;20055;-58
2024/04/02 04:43:20;;;;;;;4.82;2.35;;;;;;;;;;5137440;28;20086;-58
2024/04/02 04:45:56;;;;;;;6.73;2.80;;;;;;;;;;5137247;28;20043;-59
2024/04/02 04:48:22;;;;;;;7.18;2.13;;;;;;;;;;5137492;28;20336;-58
2024/04/02 04:50:57;;;;;;;10.40;2.45;;;;;;;;;;5131620;28;20030;-56
2024/04/02 04:53:23;;;;;;;8.05;2.45;;;;;;;;;;5133401;28;20034;-57
2024/04/02 04:55:48;;;;;;;6.03;1.67;;;;;;;;;;5131011;28;20032;-54
2024/04/02 04:58:14;;;;;;;7.57;2.05;;;;;;;;;;5137455;28;20523;-57
2024/04/02 05:00:40;;;;;;;7.27;2.53;;;;;;;;;;5115392;28;20024;-57
2024/04/02 05:03:05;;;;;;;11.10;2.30;;;;;;;;;;5129520;28;20289;-57
2024/04/02 05:05:31;;;;;;;4.40;2.05;;;;;;;;;;5136937;28;20030;-57
2024/04/02 05:08:19;;;;;;;6.85;2.25;;;;;;;;;;5137359;28;20099;-57
2024/04/02 05:10:44;;;;;;;;;;;;;;;;;;5110140;28;20035;-58
2024/04/02 05:13:10;;;;;;;6.30;2.10;;;;;;;;;;5134259;28;19907;-57
2024/04/02 05:15:36;;;;;;;9.05;2.97;;;;;;;;;;5136413;28;20024;-56
2024/04/02 05:18:01;;;;;;;6.37;2.07;;;;;;;;;;5137186;28;20039;-58
2024/04/02 05:20:27;;;;;;;5.40;2.50;;;;;;;;;;5136655;28;20023;-59
2024/04/02 05:22:54;;;;;;;7.60;2.70;;;;;;;;;;5136498;28;20040;-58
2024/04/02 05:25:19;;;;;;;7.95;2.13;;;;;;;;;;5134664;28;20279;-57
2024/04/02 05:27:45;;;;;;;4.20;2.03;;;;;;;;;;5130684;28;20063;-59
2024/04/02 05:30:12;;;;;;;5.60;2.00;;;;;;;;;;5135508;28;20027;-56
2024/04/02 05:32:37;;;;;;;8.18;2.40;;;;;;;;;;5128382;28;20024;-59
2024/04/02 05:35:03;;;;;;;6.93;3.00;;;;;;;;;;5135702;28;20041;-59
2024/04/02 05:37:28;;;;;;;8.00;2.50;;;;;;;;;;5116410;28;20040;-58
2024/04/02 05:39:53;;;;;;;9.30;2.83;;;;;;;;;;5115786;28;20031;-59
2024/04/02 05:42:20;;;;;;;12.20;3.27;;;;;;;;;;5126599;28;20062;-59
2024/04/02 05:44:45;;;;;;;7.25;2.63;;;;;;;;;;5136654;28;20024;-59
2024/04/02 05:47:11;;;;;;;10.27;2.87;;;;;;;;;;5135912;28;20042;-57
2024/04/02 05:49:37;;;;;;;7.13;2.30;;;;;;;;;;5136421;28;20035;-56
2024/04/02 05:52:02;;;;;;;7.18;2.60;;;;;;;;;;5129658;28;20086;-57
2024/04/02 05:54:28;;;;;;;7.53;2.53;;;;;;;;;;5136048;28;20035;-57
2024/04/02 05:56:54;;;;;;;7.80;2.97;;;;;;;;;;5133554;28;20032;-57
2024/04/02 05:59:19;;;;;;;9.97;3.23;;;;;;;;;;5133094;28;20359;-58
2024/04/02 06:01:44;;;;;;;11.67;2.73;;;;;;;;;;5130423;28;20026;-57
2024/04/02 06:04:10;;;;;;;8.40;2.72;;;;;;;;;;5135998;28;20030;-56
2024/04/02 06:06:35;;;;;;;8.23;2.83;;;;;;;;;;5134917;28;20039;-59
2024/04/02 06:09:01;;;;;;;11.80;2.67;;;;;;;;;;5136119;28;20032;-59
2024/04/02 06:11:26;;;;;;;9.73;3.20;;;;;;;;;;5134026;28;20090;-60
2024/04/02 06:13:52;;;;;;;9.03;3.33;;;;;;;;;;5123155;28;20035;-56
2024/04/02 06:16:18;;;;;;;10.33;2.90;;;;;;;;;;5130126;28;20266;-59
2024/04/02 06:18:44;;;;;;;6.73;3.20;;;;;;;;;;5135607;28;20268;-58
2024/04/02 06:21:09;;;;;;;9.90;2.70;;;;;;;;;;5126247;28;20083;-59
2024/04/02 06:23:35;;;;;;;12.70;2.50;;;;;;;;;;5135132;28;20062;-58
2024/04/02 06:26:00;;;;;;;8.82;2.97;;;;;;;;;;5133512;28;20026;-57
2024/04/02 06:28:26;;;;;;;8.33;2.67;;;;;;;;;;5135705;28;20061;-59
2024/04/02 06:30:51;;;;;;;7.20;2.75;;;;;;;;;;5127949;28;20617;-58
2024/04/02 06:33:17;;;;;;;12.80;2.55;;;;;;;;;;5111420;28;20061;-58
2024/04/02 06:35:43;;;;;;;11.90;2.80;;;;;;;;;;5132972;28;20027;-59
2024/04/02 06:38:09;;;;;;;8.95;2.75;;;;;;;;;;5135717;28;20088;-57
2024/04/02 06:40:35;;;;;;;6.75;2.67;;;;;;;;;;5135248;28;20016;-57
2024/04/02 06:43:00;;;;;;;11.10;3.13;;;;;;;;;;5133075;28;20028;-57
2024/04/02 06:45:27;;;;;;;12.93;2.65;;;;;;;;;;5132059;28;20059;-57
2024/04/02 06:47:53;;;;;;;7.97;3.15;;;;;;;;;;5124403;28;20031;-57
2024/04/02 06:50:18;;;;;;;12.65;3.42;;;;;;;;;;5132904;28;20042;-58
2024/04/02 06:52:44;;;;;;;8.27;2.77;;;;;;;;;;5128913;28;20032;-55
2024/04/02 06:55:09;;;;;;;10.18;3.10;;;;;;;;;;5133916;28;20023;-55
2024/04/02 06:57:35;;;;;;;15.55;3.10;;;;;;;;;;5131008;28;20032;-54
2024/04/02 07:00:01;;;;;;;9.23;3.63;;;;;;;;;;5117021;28;20141;-57
2024/04/02 07:02:26;;;;;;;10.40;4.63;;;;;;;;;;5130321;28;20027;-57
2024/04/02 07:04:52;;;;;;;13.38;3.80;;;;;;;;;;5131149;28;20050;-58
2024/04/02 07:07:17;;;;;;;9.10;3.87;;;;;;;;;;5134673;28;20095;-58
2024/04/02 07:09:42;;;;;;;16.20;5.17;;;;;;;;;;5134985;28;20031;-56
2024/04/02 07:12:10;;;;;;;9.63;3.63;;;;;;;;;;5134142;28;20063;-56
2024/04/02 07:14:36;;;;;;;12.97;3.50;;;;;;;;;;5123990;28;20043;-57
2024/04/02 07:17:01;;;;;;;10.33;4.53;;;;;;;;;;5130141;28;20503;-56
2024/04/02 07:19:27;;;;;;;16.10;4.82;;;;;;;;;;5134846;28;20032;-59
2024/04/02 07:21:52;;;;;;;16.98;4.40;;;;;;;;;;5132854;28;20031;-55
2024/04/02 07:24:18;;;;;;;14.00;4.45;;;;;;;;;;5124168;28;20040;-57
2024/04/02 07:26:43;;;;;;;16.73;5.43;;;;;;;;;;5128903;28;20032;-56
2024/04/02 07:29:09;;;;;;;13.65;5.20;;;;;;;;;;5134985;28;20480;-53
2024/04/02 07:31:34;;;;;;;14.10;4.65;;;;;;;;;;5134910;28;20032;-56
2024/04/02 07:34:00;;;;;;;12.60;4.07;;;;;;;;;;5130071;28;20031;-55
2024/04/02 07:36:25;;;;;;;11.27;4.30;;;;;;;;;;5126324;28;20502;-57
2024/04/02 07:38:50;;;;;;;14.73;4.20;;;;;;;;;;5134715;28;20028;-54
2024/04/02 07:41:15;;;;;;;13.87;4.33;;;;;;;;;;5134630;28;20024;-57
2024/04/02 07:43:41;;;;;;;9.67;4.50;;;;;;;;;;5114573;28;20024;-56
2024/04/02 07:46:08;;;;;;;12.17;4.17;;;;;;;;;;5113929;28;20019;-57
2024/04/02 07:48:33;;;;;;;19.67;4.17;;;;;;;;;;5121990;28;20032;-56
2024/04/02 07:51:06;;;;;;;13.17;4.03;;;;;;;;;;5130226;28;20267;-56
2024/04/02 07:53:31;;;;;;;22.03;4.70;;;;;;;;;;5129271;28;20031;-54
2024/04/02 07:55:57;;;;;;;21.00;5.15;;;;;;;;;;5134050;28;20267;-54
2024/04/02 07:58:23;;;;;;;8.40;3.67;;;;;;;;;;5135163;28;20036;-55
2024/04/02 08:00:48;;;;;;;20.05;3.97;;;;;;;;;;5138339;28;20020;-57
2024/04/02 08:03:14;;;;;;;8.57;4.17;;;;;;;;;;5137015;28;20024;-58
2024/04/02 08:05:41;;;;;;;16.63;4.30;;;;;;;;;;5137755;28;20266;-57
2024/04/02 08:08:06;;;;;;;14.37;4.70;;;;;;;;;;5129559;28;20146;-56
2024/04/02 08:10:31;;;;;;;15.07;3.67;;;;;;;;;;5137983;28;20278;-58
2024/04/02 08:12:58;;;;;;;12.77;4.40;;;;;;;;;;5137803;28;20041;-54
2024/04/02 08:15:23;;;;;;;;;;;;;;;;;;5138385;28;20364;-58
2024/04/02 08:17:48;;;;;;;14.80;3.83;;;;;;;;;;5133323;28;19912;-58
2024/04/02 08:20:14;;;;;;;17.02;4.38;;;;;;;;;;5132335;28;20024;-56
2024/04/02 08:22:39;;;;;;;12.20;3.28;;;;;;;;;;5137212;28;20099;-56
2024/04/02 08:25:07;;;;;;;16.53;4.10;;;;;;;;;;5132321;28;20043;-58
2024/04/02 08:27:33;;;;;;;19.67;4.20;;;;;;;;;;5119417;28;20303;-56
2024/04/02 08:29:59;;;;;;;16.33;4.30;;;;;;;;;;5132451;28;20244;-56
2024/04/02 08:32:24;;;;;;;10.32;3.30;;;;;;;;;;5133377;28;20036;-57
2024/04/02 08:34:50;;;;;;;20.13;4.60;;;;;;;;;;5119578;28;20039;-56
2024/04/02 08:37:16;;;;;;;16.23;3.90;;;;;;;;;;5129745;28;20477;-58
2024/04/02 08:39:41;;;;;;;16.50;4.68;;;;;;;;;;5134010;28;20032;-57
2024/04/02 08:42:07;;;;;;;7.00;3.38;;;;;;;;;;5136569;28;20023;-56
2024/04/02 08:44:32;;;;;;;12.40;3.27;;;;;;;;;;5124440;28;20148;-59
2024/04/02 08:46:59;;;;;;;10.17;3.57;;;;;;;;;;5137407;28;20058;-58
2024/04/02 08:49:24;;;;;;;16.40;3.60;;;;;;;;;;5137457;28;20024;-57
2024/04/02 08:51:50;;;;;;;13.63;3.97;;;;;;;;;;5137692;28;20040;-57
2024/04/02 08:54:15;;;;;;;15.45;3.58;;;;;;;;;;5125989;28;20052;-57
2024/04/02 08:56:41;;;;;;;14.70;4.53;;;;;;;;;;5133302;28;20446;-57
2024/04/02 08:59:08;;;;;;;12.23;3.78;;;;;;;;;;5132416;28;20027;-56
2024/04/02 09:01:33;;;;;;;17.90;3.97;;;;;;;;;;5137187;28;20058;-55
2024/04/02 09:04:01;;;;;;;9.85;3.50;;;;;;;;;;5127949;28;20268;-58
2024/04/02 09:06:26;;;;;;;13.30;3.87;;;;;;;;;;5134054;28;20031;-56
2024/04/02 09:08:52;;;;;;;18.20;4.32;;;;;;;;;;5132897;28;20279;-56
2024/04/02 09:11:18;;;;;;;14.38;4.00;;;;;;;;;;5136180;28;20046;-58
2024/04/02 09:13:44;;;;;;;16.42;4.72;;;;;;;;;;5136670;28;20032;-58
2024/04/02 09:16:10;;;;;;;15.52;3.65;;;;;;;;;;5137115;28;20069;-56
2024/04/02 09:18:37;;;;;;;9.25;3.10;;;;;;;;;;5136853;28;20035;-58
2024/04/02 09:21:03;;;;;;;12.03;2.87;;;;;;;;;;5136601;28;20023;-56
2024/04/02 09:23:29;;;;;;;5.78;2.45;;;;;;;;;;5134287;28;20265;-58
2024/04/02 09:25:56;;;;;;;12.57;3.00;;;;;;;;;;5136967;28;20038;-59
2024/04/02 09:28:21;;;;;;;11.80;2.67;;;;;;;;;;5120831;28;20046;-57
2024/04/02 09:30:47;;;;;;;10.15;2.50;;;;;;;;;;5125637;28;20035;-56
2024/04/02 09:33:15;;;;;;;10.52;2.28;;;;;;;;;;5136105;28;20020;-57
2024/04/02 09:35:59;;;;;;;6.70;2.20;;;;;;;;;;5136490;28;20071;-59
2024/04/02 09:38:26;;;;;;;11.23;2.53;;;;;;;;;;5136288;28;20026;-59
2024/04/02 09:40:51;;;;;;;12.52;2.47;;;;;;;;;;5136519;28;20056;-58
2024/04/02 09:43:18;;;;;;;9.02;2.22;;;;;;;;;;5135791;28;20023;-57
2024/04/02 09:45:46;;;;;;;8.40;2.30;;;;;;;;;;5136470;28;20044;-58
2024/04/02 09:48:12;;;;;;;9.37;2.40;;;;;;;;;;5136312;28;20031;-57
2024/04/02 09:50:39;;;;;;;16.73;2.65;;;;;;;;;;5135771;28;20358;-58
2024/04/02 09:53:04;;;;;;;12.20;3.13;;;;;;;;;;5132005;28;20055;-57
2024/04/02 09:55:31;;;;;;;12.70;3.87;;;;;;;;;;5135907;28;20302;-57
2024/04/02 09:57:57;;;;;;;14.77;2.97;;;;;;;;;;5127261;28;20020;-56
2024/04/02 10:00:23;;;;;;;10.50;2.20;;;;;;;;;;5116486;28;20267;-56
2024/04/02 10:02:49;;;;;;;10.73;3.03;;;;;;;;;;5125405;28;20032;-58
2024/04/02 10:05:24;;;;;;;10.80;2.90;;;;;;;;;;5130988;28;20079;-57
2024/04/02 10:07:54;;;;;;;10.07;2.43;;;;;;;;;;5133416;28;20035;-57
2024/04/02 10:10:27;;;;;;;9.33;2.83;;;;;;;;;;5135170;28;20252;-56
2024/04/02 10:12:52;;;;;;;10.27;2.67;;;;;;;;;;5116756;28;20279;-57
2024/04/02 10:15:18;;;;;;;14.67;2.33;;;;;;;;;;5130716;28;20339;-57
2024/04/02 10:17:43;;;;;;;7.68;3.03;;;;;;;;;;5129534;28;20031;-58
2024/04/02 10:20:16;;;;;;;11.98;2.90;;;;;;;;;;5135416;28;20027;-58
2024/04/02 10:22:41;;;;;;;10.40;3.10;;;;;;;;;;5135455;28;20036;-54
2024/04/02 10:25:12;;;;;;;10.95;3.42;;;;;;;;;;5130280;28;20352;-58
2024/04/02 10:27:41;;;;;;;10.80;2.77;;;;;;;;;;5133213;28;20031;-57
2024/04/02 10:30:26;;;;;;;13.13;2.83;;;;;;;;;;5135590;28;20287;-54
2024/04/02 10:32:55;;;;;;;5.93;2.03;;;;;;;;;;5127913;28;20282;-56
2024/04/02 10:35:25;;;;;;;10.77;4.07;;;;;;;;;;5130241;28;20301;-57
2024/04/02 10:37:51;;;;;;;8.20;3.37;;;;;;;;;;5127511;28;20281;-57
2024/04/02 10:40:17;;;;;;;16.67;4.70;;;;;;;;;;5135069;28;20262;-58
2024/04/02 10:42:44;;;;;;;18.20;3.83;;;;;;;;;;5122592;28;20264;-58
2024/04/02 10:45:10;;;;;;;13.10;4.07;;;;;;;;;;5132691;28;20051;-58
2024/04/02 10:47:38;;;;;;;11.43;3.10;;;;;;;;;;5134581;28;20264;-58
2024/04/02 10:50:05;;;;;;;15.67;3.77;;;;;;;;;;5133733;28;20113;-60
2024/04/02 10:52:36;;;;;;;18.07;3.93;;;;;;;;;;5124305;28;20268;-58
2024/04/02 10:55:03;;;;;;;14.37;4.53;;;;;;;;;;5131848;28;20031;-59
2024/04/02 10:57:29;;;;;;;11.70;4.33;;;;;;;;;;5134765;28;20252;-60
2024/04/02 10:59:55;;;;;;;16.50;4.30;;;;;;;;;;5135112;28;20260;-60
2024/04/02 11:02:21;;;;;;;8.82;3.58;;;;;;;;;;5134490;28;20024;-60
2024/04/02 11:04:46;;;;;;;11.87;3.90;;;;;;;;;;5134557;28;20040;-60
2024/04/02 11:07:12;;;;;;;9.02;3.25;;;;;;;;;;5129966;28;20586;-59
2024/04/02 11:09:45;;;;;;;10.52;3.25;;;;;;;;;;5134960;28;20035;-60
2024/04/02 11:12:10;;;;;;;15.60;3.87;;;;;;;;;;5134475;28;20039;-58
2024/04/02 11:14:36;;;;;;;7.73;3.70;;;;;;;;;;5113405;28;20341;-64
2024/04/02 11:17:02;;;;;;;11.07;4.82;;;;;;;;;;5134666;28;20126;-59
2024/04/02 11:19:28;;;;;;;12.43;5.20;;;;;;;;;;5124651;28;20031;-58
2024/04/02 11:27:23;;;;;;;8.87;3.27;;;;;;;;;;5130225;28;20263;-60
2024/04/02 11:29:48;;;;;;;11.18;4.60;;;;;;;;;;5134905;28;20268;-60
2024/04/02 11:32:13;;;;;;;10.47;4.10;;;;;;;;;;5134855;28;20024;-59
2024/04/02 11:34:39;;;;;;;10.60;3.92;;;;;;;;;;5130555;28;20031;-59
2024/04/02 11:37:05;;;;;;;9.10;2.85;;;;;;;;;;5139106;28;20095;-59
2024/04/02 11:39:30;;;;;;;10.32;3.08;;;;;;;;;;5134550;28;20039;-59
2024/04/02 11:41:56;;;;;;;12.13;2.70;;;;;;;;;;5131022;28;20030;-60
2024/04/02 11:44:22;;;;;;;6.18;2.40;;;;;;;;;;5124596;28;20031;-59
2024/04/02 11:46:48;;;;;;;10.77;2.45;;;;;;;;;;5138725;28;20053;-54
2024/04/02 11:49:14;;;;;;;10.43;3.35;;;;;;;;;;5138222;28;20043;-57
2024/04/02 11:51:39;;;;;;;7.63;2.38;;;;;;;;;;5120567;28;20035;-58
2024/04/02 11:54:05;;;;;;;7.40;2.55;;;;;;;;;;5137936;28;20082;-58
2024/04/02 12:00:07;;;;;;;6.80;2.72;;;;;;;;;;5138408;28;20030;-54
2024/04/02 12:02:00;;;;;;;7.90;2.47;;;;;;;;;;5137984;28;20267;-58
2024/04/02 12:04:25;;;;;;;5.37;2.20;;;;;;;;;;5110689;28;20273;-59
2024/04/02 12:06:55;;;;;;;10.30;2.60;;;;;;;;;;5130842;28;20256;-58
2024/04/02 12:09:21;;;;;;;9.17;3.03;;;;;;;;;;5138311;28;20029;-57
2024/04/02 12:11:46;;;;;;;14.75;2.72;;;;;;;;;;5138231;28;20248;-58
2024/04/02 12:14:12;;;;;;;8.70;1.90;;;;;;;;;;5123163;28;20049;-57
2024/04/02 12:16:37;;;;;;;11.30;2.70;;;;;;;;;;5131127;28;20095;-56
2024/04/02 12:19:03;;;;;;;4.72;2.00;;;;;;;;;;5126497;28;20043;-59
2024/04/02 12:21:28;;;;;;;9.10;2.67;;;;;;;;;;5130049;28;20035;-56
2024/04/02 12:23:54;;;;;;;5.90;2.40;;;;;;;;;;5134788;28;20088;-60
2024/04/02 12:26:19;;;;;;;6.38;2.60;;;;;;;;;;5136519;28;20032;-58
2024/04/02 12:28:45;;;;;;;13.07;3.57;;;;;;;;;;5137466;28;20047;-58
2024/04/02 12:31:11;;;;;;;8.57;3.50;;;;;;;;;;5127513;28;20051;-58
2024/04/02 12:33:37;;;;;;;17.30;4.70;;;;;;;;;;5134895;28;20047;-57
2024/04/02 12:36:05;;;;;;;16.83;4.60;;;;;;;;;;5137416;28;20020;-56
2024/04/02 12:38:31;;;;;;;14.57;4.23;;;;;;;;;;5134277;28;20259;-58
2024/04/02 12:41:00;;;;;;;20.48;4.15;;;;;;;;;;5137065;28;20259;-56
2024/04/02 12:43:26;;;;;;;10.07;4.03;;;;;;;;;;5137432;28;20038;-57
2024/04/02 12:45:52;;;;;;;10.70;4.40;;;;;;;;;;5135853;28;20272;-58
2024/04/02 12:48:17;;;;;;;12.57;3.95;;;;;;;;;;5119470;28;20099;-58
2024/04/02 12:50:52;;;;;;;19.70;5.13;;;;;;;;;;5137253;28;20066;-57
2024/04/02 12:53:20;;;;;;;9.20;3.67;;;;;;;;;;5129609;28;20031;-58
2024/04/02 12:55:47;;;;;;;10.57;4.60;;;;;;;;;;5134427;28;20300;-59
2024/04/02 12:58:12;;;;;;;11.65;3.83;;;;;;;;;;5133608;28;20303;-58
2024/04/02 13:00:41;;;;;;;10.07;4.60;;;;;;;;;;5136108;28;20027;-55
2024/04/02 13:03:06;;;;;;;17.90;4.93;;;;;;;;;;5137437;28;20091;-57
2024/04/02 13:05:35;;;;;;;9.82;4.10;;;;;;;;;;5136865;28;20262;-57
2024/04/02 13:08:01;;;;;;;10.93;3.87;;;;;;;;;;5131438;28;20034;-59
2024/04/02 13:10:27;;;;;;;9.57;3.67;;;;;;;;;;5136731;28;20264;-59
2024/04/02 13:12:52;;;;;;;8.85;3.50;;;;;;;;;;5137138;28;20043;-58
2024/04/02 13:15:18;;;;;;;6.78;3.92;;;;;;;;;;5131052;28;20057;-58
2024/04/02 13:17:43;;;;;;;9.53;3.87;;;;;;;;;;5137154;28;20035;-55
2024/04/02 13:20:09;;;;;;;6.47;2.63;;;;;;;;;;5131257;28;20016;-55
2024/04/02 13:22:34;;;;;;;9.60;2.93;;;;;;;;;;5136796;28;20102;-59
2024/04/02 13:24:59;;;;;;;9.53;3.17;;;;;;;;;;5134260;28;20401;-58
2024/04/02 13:27:25;;;;;;;7.60;2.60;;;;;;;;;;5136707;28;20046;-59
2024/04/02 13:29:51;;;;;;;6.40;2.25;;;;;;;;;;5118028;28;20143;-58
2024/04/02 13:32:17;;;;;;;6.37;2.83;;;;;;;;;;5136787;28;20027;-58
2024/04/02 13:34:43;;;;;;;7.87;2.37;;;;;;;;;;5131317;28;20353;-57
2024/04/02 13:37:10;;;;;;;;;;;;;;;;;;5130502;28;20020;-55
2024/04/02 13:39:36;;;;;;;5.95;2.38;;;;;;;;;;5129226;28;19946;-59
2024/04/02 13:42:02;;;;;;;9.23;3.17;;;;;;;;;;5132714;28;20051;-60
2024/04/02 13:44:28;;;;;;;6.20;2.33;;;;;;;;;;5129974;28;20024;-60
2024/04/02 13:46:54;;;;;;;10.30;3.53;;;;;;;;;;5132140;28;20271;-60
2024/04/02 13:49:19;;;;;;;10.37;2.30;;;;;;;;;;5135743;28;20103;-59
2024/04/02 13:51:44;;;;;;;13.50;2.97;;;;;;;;;;5136483;28;20065;-60
2024/04/02 13:54:10;;;;;;;9.43;3.05;;;;;;;;;;5135897;28;20036;-59
2024/04/02 13:56:36;;;;;;;7.30;2.70;;;;;;;;;;5124404;28;20032;-60
2024/04/02 13:59:01;;;;;;;10.73;2.90;;;;;;;;;;5128390;28;20028;-60
2024/04/02 14:01:27;;;;;;;9.40;4.03;;;;;;;;;;5136252;28;20110;-60
2024/04/02 14:03:52;;;;;;;12.80;3.93;;;;;;;;;;5118461;28;20043;-60
2024/04/02 14:06:18;;;;;;;16.17;4.37;;;;;;;;;;5130113;28;20020;-59
2024/04/02 14:08:44;;;;;;;10.63;4.33;;;;;;;;;;5135481;28;20289;-60
2024/04/02 14:11:16;;;;;;;6.03;3.77;;;;;;;;;;5135932;28;20058;-59
2024/04/02 14:13:43;;;;;;;10.93;4.13;;;;;;;;;;5100805;28;20024;-57
2024/04/02 14:16:13;;;;;;;8.93;3.60;;;;;;;;;;5130955;28;20288;-58
2024/04/02 14:18:39;;;;;;;12.60;4.13;;;;;;;;;;5135012;28;20328;-59
2024/04/02 14:21:06;;;;;;;8.32;4.18;;;;;;;;;;5133107;28;20275;-59
2024/04/02 14:23:38;;;;;;;11.17;3.73;;;;;;;;;;5134376;28;20028;-60
2024/04/02 14:26:04;;;;;;;9.27;3.50;;;;;;;;;;5108498;28;20296;-59
2024/04/02 14:28:30;;;;;;;7.55;2.80;;;;;;;;;;5132064;28;20259;-59
2024/04/02 14:31:01;;;;;;;7.22;2.92;;;;;;;;;;5135823;28;20024;-59
2024/04/02 14:33:27;;;;;;;6.30;2.27;;;;;;;;;;5135715;28;20080;-59
2024/04/02 14:35:53;;;;;;;6.13;2.25;;;;;;;;;;5135591;28;20034;-56
2024/04/02 14:38:19;;;;;;;5.25;2.20;;;;;;;;;;5123082;28;20027;-58
2024/04/02 14:40:44;;;;;;;7.30;2.33;;;;;;;;;;5135064;28;20020;-59
2024/04/02 14:43:10;;;;;;;8.30;2.10;;;;;;;;;;5114198;28;20296;-58